La rose des vents
Donnes mto: Semaine 10/01/22 - 16/01/22 (S 2)
Date Horaire Temp. E. Hum. E. P.atmo. Pluie Vent 1mn Direction Ensoleilleme Ev.Tr. Solaire P. de rose Temp au vent Rafales
10/01/2022 00:00 6,1 C 54 % 1004,5 hPa 0,0 l/m 1,8 km/h (1 Bft) S-SO 0,00 h 0,025 mm 0 W/m -2,5 C 5,9 C 3,0 km/h (1 Bft)
10/01/2022 01:00 6,1 C 54 % 1004,5 hPa 0,0 l/m 0,0 km/h (0 Bft) N 0,00 h 0,025 mm 0 W/m -2,6 C 6,1 C 0,0 km/h (0 Bft)
10/01/2022 02:00 6,0 C 50 % 1004,5 hPa 0,0 l/m 0,0 km/h (0 Bft) N 0,00 h 0,025 mm 0 W/m -3,5 C 6,0 C 0,0 km/h (0 Bft)
10/01/2022 03:00 6,0 C 52 % 1004,9 hPa 0,0 l/m 0,3 km/h (0 Bft) S-SO 0,00 h 0,025 mm 0 W/m -3,2 C 6,0 C 1,5 km/h (1 Bft)
10/01/2022 04:00 5,9 C 54 % 1005,0 hPa 0,0 l/m 0,3 km/h (0 Bft) S-SO 0,00 h 0,025 mm 0 W/m -2,8 C 5,9 C 1,4 km/h (1 Bft)
10/01/2022 05:00 5,2 C 56 % 1005,2 hPa 0,0 l/m 0,8 km/h (0 Bft) N-NO 0,00 h 0,025 mm 0 W/m -2,9 C 5,2 C 2,0 km/h (1 Bft)
10/01/2022 06:00 5,0 C 55 % 1005,7 hPa 0,0 l/m 0,1 km/h (0 Bft) N-NO 0,00 h 0,025 mm 0 W/m -3,3 C 5,0 C 0,8 km/h (0 Bft)
10/01/2022 07:00 4,8 C 58 % 1006,2 hPa 0,0 l/m 2,0 km/h (1 Bft) NO 0,00 h 0,025 mm 0 W/m -2,8 C 4,8 C 4,3 km/h (1 Bft)
10/01/2022 08:00 5,5 C 60 % 1007,0 hPa 0,0 l/m 1,6 km/h (1 Bft) O-NO 0,57 h 0,025 mm 40 W/m -1,5 C 5,5 C 4,1 km/h (1 Bft)
10/01/2022 09:00 7,8 C 57 % 1008,0 hPa 0,0 l/m 0,1 km/h (0 Bft) O-NO 1,00 h 0,025 mm 156 W/m -0,2 C 7,8 C 0,4 km/h (0 Bft)
10/01/2022 10:00 10,9 C 55 % 1008,6 hPa 0,0 l/m 0,0 km/h (0 Bft) N 1,00 h 0,076 mm 268 W/m 2,1 C 10,9 C 0,0 km/h (0 Bft)
10/01/2022 11:00 13,6 C 53 % 1009,1 hPa 0,0 l/m 0,2 km/h (0 Bft) S-SO 1,00 h 0,127 mm 347 W/m 4,3 C 13,6 C 0,6 km/h (0 Bft)
10/01/2022 12:00 13,6 C 50 % 1009,2 hPa 0,0 l/m 1,2 km/h (1 Bft) S-SO 0,63 h 0,178 mm 303 W/m 3,3 C 13,6 C 3,4 km/h (1 Bft)
10/01/2022 13:00 11,9 C 53 % 1009,6 hPa 0,0 l/m 0,7 km/h (0 Bft) O-SO 0,22 h 0,152 mm 157 W/m 2,5 C 11,9 C 2,5 km/h (1 Bft)
10/01/2022 14:00 12,7 C 50 % 1009,9 hPa 0,0 l/m 3,3 km/h (1 Bft) S 0,45 h 0,102 mm 190 W/m 2,4 C 12,7 C 6,2 km/h (2 Bft)
10/01/2022 15:00 11,8 C 55 % 1010,5 hPa 0,0 l/m 2,6 km/h (1 Bft) S-SO 0,85 h 0,127 mm 163 W/m 2,9 C 11,8 C 5,1 km/h (1 Bft)
10/01/2022 16:00 12,0 C 56 % 1011,1 hPa 0,0 l/m 0,8 km/h (0 Bft) S-SO 1,00 h 0,102 mm 72 W/m 3,6 C 12,0 C 2,3 km/h (1 Bft)
10/01/2022 17:00 10,3 C 60 % 1012,1 hPa 0,0 l/m 0,0 km/h (0 Bft) N 0,07 h 0,051 mm 8 W/m 2,8 C 10,3 C 0,0 km/h (0 Bft)
10/01/2022 18:00 8,0 C 62 % 1013,1 hPa 0,0 l/m 1,1 km/h (1 Bft) S-SO 0,00 h 0,000 mm 0 W/m 1,2 C 8,0 C 2,9 km/h (1 Bft)
10/01/2022 19:00 6,3 C 63 % 1014,2 hPa 0,0 l/m 1,3 km/h (1 Bft) S-SO 0,00 h 0,025 mm 0 W/m -0,1 C 6,3 C 3,3 km/h (1 Bft)
10/01/2022 20:00 6,0 C 55 % 1015,0 hPa 0,0 l/m 0,5 km/h (0 Bft) S-SO 0,00 h 0,025 mm 0 W/m -2,4 C 6,0 C 1,7 km/h (1 Bft)
10/01/2022 21:00 5,9 C 45 % 1015,5 hPa 0,0 l/m 0,8 km/h (0 Bft) S-SO 0,00 h 0,025 mm 0 W/m -5,0 C 5,9 C 2,5 km/h (1 Bft)
10/01/2022 22:00 5,8 C 43 % 1015,9 hPa 0,0 l/m 2,3 km/h (1 Bft) S-SO 0,00 h 0,025 mm 0 W/m -5,9 C 5,6 C 4,9 km/h (1 Bft)
10/01/2022 23:00 6,2 C 39 % 1016,2 hPa 0,0 l/m 4,4 km/h (1 Bft) O-NO 0,00 h 0,051 mm 0 W/m -6,6 C 5,7 C 8,4 km/h (2 Bft)
11/01/2022 00:00 5,9 C 38 % 1016,6 hPa 0,0 l/m 2,7 km/h (1 Bft) NO 0,00 h 0,051 mm 0 W/m -7,4 C 5,7 C 5,0 km/h (1 Bft)
11/01/2022 01:00 5,4 C 38 % 1016,9 hPa 0,0 l/m 0,9 km/h (0 Bft) NO 0,00 h 0,051 mm 0 W/m -7,7 C 5,4 C 1,7 km/h (1 Bft)
11/01/2022 02:00 4,8 C 38 % 1017,4 hPa 0,0 l/m 0,3 km/h (0 Bft) NO 0,00 h 0,051 mm 0 W/m -8,4 C 4,8 C 1,4 km/h (1 Bft)
11/01/2022 03:00 4,7 C 38 % 1017,6 hPa 0,0 l/m 0,6 km/h (0 Bft) NO 0,00 h 0,025 mm 0 W/m -8,3 C 4,7 C 1,9 km/h (1 Bft)
11/01/2022 04:00 4,8 C 38 % 1017,6 hPa 0,0 l/m 3,0 km/h (1 Bft) NO 0,00 h 0,025 mm 0 W/m -8,5 C 4,5 C 6,0 km/h (2 Bft)
11/01/2022 05:00 5,3 C 37 % 1017,7 hPa 0,0 l/m 2,2 km/h (1 Bft) NO 0,00 h 0,051 mm 0 W/m -8,1 C 5,2 C 4,5 km/h (1 Bft)
11/01/2022 06:00 4,4 C 38 % 1018,3 hPa 0,0 l/m 0,5 km/h (0 Bft) NO 0,00 h 0,051 mm 0 W/m -8,6 C 4,4 C 2,0 km/h (1 Bft)
11/01/2022 07:00 5,0 C 36 % 1018,9 hPa 0,0 l/m 0,9 km/h (0 Bft) NO 0,00 h 0,025 mm 0 W/m -8,6 C 5,0 C 3,0 km/h (1 Bft)
11/01/2022 08:00 5,3 C 38 % 1019,5 hPa 0,0 l/m 0,8 km/h (0 Bft) NO 0,62 h 0,025 mm 44 W/m -8,0 C 5,3 C 2,1 km/h (1 Bft)
11/01/2022 09:00 8,0 C 35 % 1019,8 hPa 0,0 l/m 0,0 km/h (0 Bft) N 1,00 h 0,025 mm 166 W/m -6,5 C 8,0 C 0,0 km/h (0 Bft)
11/01/2022 10:00 11,0 C 38 % 1020,0 hPa 0,0 l/m 0,0 km/h (0 Bft) N 1,00 h 0,076 mm 281 W/m -2,7 C 11,0 C 0,1 km/h (0 Bft)
11/01/2022 11:00 14,0 C 36 % 1020,0 hPa 0,0 l/m 0,0 km/h (0 Bft) N 1,00 h 0,152 mm 359 W/m -0,7 C 14,0 C 0,0 km/h (0 Bft)
11/01/2022 12:00 15,6 C 31 % 1019,9 hPa 0,0 l/m 0,0 km/h (0 Bft) N 1,00 h 0,203 mm 388 W/m -1,4 C 15,6 C 0,0 km/h (0 Bft)
11/01/2022 13:00 16,1 C 29 % 1019,5 hPa 0,0 l/m 0,2 km/h (0 Bft) S-SO 1,00 h 0,203 mm 370 W/m -2,1 C 16,1 C 0,7 km/h (0 Bft)
11/01/2022 14:00 15,3 C 31 % 1019,3 hPa 0,0 l/m 1,6 km/h (1 Bft) S-SO 1,00 h 0,203 mm 302 W/m -1,9 C 15,3 C 4,3 km/h (1 Bft)
11/01/2022 15:00 14,7 C 34 % 1019,4 hPa 0,0 l/m 3,0 km/h (1 Bft) S 1,00 h 0,178 mm 197 W/m -1,2 C 14,7 C 6,1 km/h (2 Bft)
11/01/2022 16:00 13,7 C 37 % 1019,8 hPa 0,0 l/m 1,7 km/h (1 Bft) S 1,00 h 0,127 mm 77 W/m -0,9 C 13,7 C 4,1 km/h (1 Bft)
11/01/2022 17:00 11,2 C 38 % 1020,3 hPa 0,0 l/m 1,1 km/h (1 Bft) S 0,08 h 0,051 mm 9 W/m -2,6 C 11,2 C 3,1 km/h (1 Bft)
11/01/2022 18:00 9,3 C 45 % 1021,3 hPa 0,0 l/m 0,6 km/h (0 Bft) S 0,00 h 0,025 mm 0 W/m -1,9 C 9,3 C 1,4 km/h (1 Bft)
11/01/2022 19:00 7,7 C 49 % 1021,7 hPa 0,0 l/m 0,4 km/h (0 Bft) S 0,00 h 0,051 mm 0 W/m -2,2 C 7,7 C 1,5 km/h (1 Bft)
11/01/2022 20:00 7,0 C 49 % 1022,1 hPa 0,0 l/m 0,1 km/h (0 Bft) S 0,00 h 0,025 mm 0 W/m -3,1 C 7,0 C 0,7 km/h (0 Bft)
11/01/2022 21:00 6,8 C 46 % 1022,5 hPa 0,0 l/m 1,5 km/h (1 Bft) S 0,00 h 0,025 mm 0 W/m -3,9 C 6,8 C 3,5 km/h (1 Bft)
11/01/2022 22:00 6,8 C 44 % 1022,8 hPa 0,0 l/m 1,7 km/h (1 Bft) S 0,00 h 0,051 mm 0 W/m -4,7 C 6,8 C 3,7 km/h (1 Bft)
11/01/2022 23:00 6,7 C 40 % 1023,0 hPa 0,0 l/m 1,3 km/h (1 Bft) S 0,00 h 0,051 mm 0 W/m -5,9 C 6,7 C 3,4 km/h (1 Bft)
12/01/2022 00:00 6,7 C 38 % 1023,0 hPa 0,0 l/m 1,0 km/h (0 Bft) S 0,00 h 0,051 mm 0 W/m -6,5 C 6,7 C 3,1 km/h (1 Bft)
12/01/2022 01:00 6,5 C 37 % 1023,5 hPa 0,0 l/m 0,1 km/h (0 Bft) S 0,00 h 0,051 mm 0 W/m -7,0 C 6,5 C 1,2 km/h (1 Bft)
12/01/2022 02:00 6,4 C 37 % 1024,1 hPa 0,0 l/m 0,2 km/h (0 Bft) S 0,00 h 0,051 mm 0 W/m -7,2 C 6,4 C 1,0 km/h (0 Bft)
12/01/2022 03:00 6,1 C 40 % 1024,8 hPa 0,0 l/m 0,9 km/h (0 Bft) S 0,00 h 0,051 mm 0 W/m -6,5 C 6,1 C 2,4 km/h (1 Bft)
12/01/2022 04:00 5,6 C 44 % 1025,3 hPa 0,0 l/m 1,5 km/h (1 Bft) S 0,00 h 0,051 mm 0 W/m -5,6 C 5,6 C 3,3 km/h (1 Bft)
12/01/2022 05:00 5,6 C 49 % 1025,4 hPa 0,0 l/m 2,8 km/h (1 Bft) S 0,00 h 0,025 mm 0 W/m -4,2 C 5,5 C 5,3 km/h (1 Bft)
12/01/2022 06:00 5,5 C 54 % 1025,6 hPa 0,0 l/m 5,1 km/h (1 Bft) O-NO 0,00 h 0,051 mm 0 W/m -3,2 C 4,7 C 9,0 km/h (2 Bft)
12/01/2022 07:00 6,0 C 55 % 1025,9 hPa 0,0 l/m 5,8 km/h (2 Bft) NO 0,00 h 0,051 mm 0 W/m -2,3 C 5,0 C 9,8 km/h (2 Bft)
12/01/2022 08:00 6,2 C 53 % 1026,3 hPa 0,0 l/m 3,4 km/h (1 Bft) NO 0,63 h 0,025 mm 42 W/m -2,6 C 6,0 C 6,9 km/h (2 Bft)
12/01/2022 09:00 7,7 C 48 % 1027,0 hPa 0,0 l/m 0,2 km/h (0 Bft) NO 1,00 h 0,025 mm 165 W/m -2,6 C 7,7 C 1,1 km/h (1 Bft)
12/01/2022 10:00 10,3 C 46 % 1027,3 hPa 0,0 l/m 0,0 km/h (0 Bft) N 1,00 h 0,076 mm 282 W/m -0,7 C 10,3 C 0,1 km/h (0 Bft)
12/01/2022 11:00 13,1 C 45 % 1027,4 hPa 0,0 l/m 0,0 km/h (0 Bft) N 1,00 h 0,127 mm 362 W/m 1,3 C 13,1 C 0,0 km/h (0 Bft)
12/01/2022 12:00 14,7 C 38 % 1027,3 hPa 0,0 l/m 1,1 km/h (1 Bft) O 1,00 h 0,178 mm 393 W/m 0,7 C 14,7 C 3,0 km/h (1 Bft)
12/01/2022 13:00 15,0 C 31 % 1027,0 hPa 0,0 l/m 2,4 km/h (1 Bft) O-SO 1,00 h 0,229 mm 374 W/m -2,0 C 15,0 C 4,9 km/h (1 Bft)
12/01/2022 14:00 15,3 C 34 % 1026,8 hPa 0,0 l/m 2,3 km/h (1 Bft) SO 1,00 h 0,229 mm 306 W/m -0,6 C 15,3 C 5,1 km/h (1 Bft)
12/01/2022 15:00 14,5 C 36 % 1027,0 hPa 0,0 l/m 3,8 km/h (1 Bft) SO 1,00 h 0,178 mm 203 W/m -0,3 C 14,5 C 6,8 km/h (2 Bft)
12/01/2022 16:00 13,3 C 38 % 1027,2 hPa 0,0 l/m 1,8 km/h (1 Bft) SO 1,00 h 0,152 mm 80 W/m -0,6 C 13,3 C 4,0 km/h (1 Bft)
12/01/2022 17:00 10,9 C 42 % 1027,4 hPa 0,0 l/m 1,9 km/h (1 Bft) SO 0,10 h 0,051 mm 9 W/m -1,5 C 10,9 C 4,3 km/h (1 Bft)
12/01/2022 18:00 8,6 C 50 % 1028,0 hPa 0,0 l/m 0,2 km/h (0 Bft) SO 0,00 h 0,025 mm 0 W/m -1,2 C 8,6 C 0,6 km/h (0 Bft)
12/01/2022 19:00 7,6 C 49 % 1028,6 hPa 0,0 l/m 0,7 km/h (0 Bft) SO 0,00 h 0,025 mm 0 W/m -2,4 C 7,6 C 1,8 km/h (1 Bft)
12/01/2022 20:00 7,4 C 46 % 1029,0 hPa 0,0 l/m 0,5 km/h (0 Bft) SO 0,00 h 0,025 mm 0 W/m -3,4 C 7,4 C 1,8 km/h (1 Bft)
12/01/2022 21:00 7,2 C 42 % 1029,3 hPa 0,0 l/m 0,9 km/h (0 Bft) SO 0,00 h 0,025 mm 0 W/m -4,7 C 7,2 C 3,3 km/h (1 Bft)
12/01/2022 22:00 7,1 C 39 % 1029,6 hPa 0,0 l/m 0,5 km/h (0 Bft) SO 0,00 h 0,051 mm 0 W/m -5,8 C 7,1 C 1,8 km/h (1 Bft)
12/01/2022 23:00 6,7 C 39 % 1030,1 hPa 0,0 l/m 0,9 km/h (0 Bft) SO 0,00 h 0,051 mm 0 W/m -6,4 C 6,7 C 2,7 km/h (1 Bft)
13/01/2022 00:00 6,6 C 36 % 1030,5 hPa 0,0 l/m 0,6 km/h (0 Bft) SO 0,00 h 0,051 mm 0 W/m -7,3 C 6,6 C 2,0 km/h (1 Bft)
13/01/2022 01:00 5,9 C 37 % 1031,0 hPa 0,0 l/m 0,7 km/h (0 Bft) SO 0,00 h 0,051 mm 0 W/m -7,6 C 5,9 C 2,1 km/h (1 Bft)
13/01/2022 02:00 5,7 C 38 % 1031,1 hPa 0,0 l/m 2,1 km/h (1 Bft) SO 0,00 h 0,051 mm 0 W/m -7,3 C 5,7 C 4,5 km/h (1 Bft)
13/01/2022 03:00 5,6 C 41 % 1031,1 hPa 0,0 l/m 3,0 km/h (1 Bft) SO 0,00 h 0,051 mm 0 W/m -6,6 C 5,5 C 5,5 km/h (1 Bft)
13/01/2022 04:00 5,2 C 44 % 1031,2 hPa 0,0 l/m 3,1 km/h (1 Bft) SO 0,00 h 0,051 mm 0 W/m -6,1 C 5,2 C 5,8 km/h (2 Bft)
13/01/2022 05:00 5,1 C 43 % 1031,4 hPa 0,0 l/m 3,4 km/h (1 Bft) SO 0,00 h 0,051 mm 0 W/m -6,4 C 4,9 C 6,0 km/h (2 Bft)
13/01/2022 06:00 5,0 C 42 % 1031,7 hPa 0,0 l/m 1,8 km/h (1 Bft) SO 0,00 h 0,051 mm 0 W/m -6,9 C 5,0 C 3,8 km/h (1 Bft)
13/01/2022 07:00 5,4 C 44 % 1032,1 hPa 0,0 l/m 3,0 km/h (1 Bft) SO 0,00 h 0,051 mm 0 W/m -6,0 C 5,2 C 5,1 km/h (1 Bft)
13/01/2022 08:00 5,8 C 41 % 1032,5 hPa 0,0 l/m 1,6 km/h (1 Bft) SO 0,62 h 0,025 mm 42 W/m -6,5 C 5,8 C 4,0 km/h (1 Bft)
13/01/2022 09:00 8,2 C 42 % 1033,0 hPa 0,0 l/m 0,0 km/h (0 Bft) N 1,00 h 0,025 mm 166 W/m -4,1 C 8,2 C 0,1 km/h (0 Bft)
13/01/2022 10:00 11,9 C 45 % 1033,3 hPa 0,0 l/m 0,0 km/h (0 Bft) N 1,00 h 0,076 mm 282 W/m 0,5 C 11,9 C 0,0 km/h (0 Bft)
13/01/2022 11:00 13,3 C 43 % 1033,7 hPa 0,0 l/m 0,0 km/h (0 Bft) N 1,00 h 0,152 mm 360 W/m 1,1 C 13,3 C 0,0 km/h (0 Bft)
13/01/2022 12:00 15,0 C 43 % 1033,3 hPa 0,0 l/m 0,1 km/h (0 Bft) SO 1,00 h 0,178 mm 393 W/m 2,5 C 15,0 C 0,6 km/h (0 Bft)
13/01/2022 13:00 15,1 C 41 % 1033,0 hPa 0,0 l/m 1,3 km/h (1 Bft) SO 1,00 h 0,203 mm 373 W/m 1,9 C 15,1 C 3,2 km/h (1 Bft)
13/01/2022 14:00 14,5 C 39 % 1032,7 hPa 0,0 l/m 2,8 km/h (1 Bft) SO 1,00 h 0,203 mm 301 W/m 0,8 C 14,5 C 5,7 km/h (1 Bft)
13/01/2022 15:00 14,4 C 41 % 1033,3 hPa 0,0 l/m 0,5 km/h (0 Bft) S-SO 1,00 h 0,178 mm 197 W/m 1,4 C 14,4 C 1,3 km/h (1 Bft)
13/01/2022 16:00 13,4 C 47 % 1033,7 hPa 0,0 l/m 0,0 km/h (0 Bft) N 1,00 h 0,102 mm 79 W/m 2,3 C 13,4 C 0,0 km/h (0 Bft)
13/01/2022 17:00 11,3 C 51 % 1033,8 hPa 0,0 l/m 0,0 km/h (0 Bft) N 0,13 h 0,051 mm 10 W/m 1,6 C 11,3 C 0,0 km/h (0 Bft)
13/01/2022 18:00 8,6 C 58 % 1034,1 hPa 0,0 l/m 0,1 km/h (0 Bft) S-SO 0,00 h 0,000 mm 0 W/m 0,8 C 8,6 C 0,9 km/h (0 Bft)
13/01/2022 19:00 6,9 C 63 % 1034,4 hPa 0,0 l/m 1,1 km/h (1 Bft) S-SO 0,00 h 0,025 mm 0 W/m 0,3 C 6,9 C 2,9 km/h (1 Bft)
13/01/2022 20:00 6,4 C 63 % 1034,6 hPa 0,0 l/m 1,7 km/h (1 Bft) S-SO 0,00 h 0,025 mm 0 W/m -0,1 C 6,4 C 3,7 km/h (1 Bft)
13/01/2022 21:00 6,2 C 63 % 1034,5 hPa 0,0 l/m 2,7 km/h (1 Bft) S-SO 0,00 h 0,025 mm 0 W/m -0,3 C 6,1 C 4,8 km/h (1 Bft)
13/01/2022 22:00 6,1 C 62 % 1034,4 hPa 0,0 l/m 3,4 km/h (1 Bft) S-SO 0,00 h 0,025 mm 0 W/m -0,7 C 6,0 C 6,2 km/h (2 Bft)
13/01/2022 23:00 6,2 C 59 % 1034,3 hPa 0,0 l/m 3,3 km/h (1 Bft) S-SO 0,00 h 0,025 mm 0 W/m -1,1 C 6,1 C 5,6 km/h (1 Bft)
14/01/2022 00:00 6,0 C 57 % 1034,0 hPa 0,0 l/m 2,3 km/h (1 Bft) S-SO 0,00 h 0,025 mm 0 W/m -1,8 C 6,0 C 4,4 km/h (1 Bft)
14/01/2022 01:00 5,7 C 56 % 1033,7 hPa 0,0 l/m 0,3 km/h (0 Bft) S-SO 0,00 h 0,025 mm 0 W/m -2,4 C 5,7 C 0,8 km/h (0 Bft)
14/01/2022 02:00 5,4 C 56 % 1033,6 hPa 0,0 l/m 0,1 km/h (0 Bft) S-SO 0,00 h 0,025 mm 0 W/m -2,8 C 5,4 C 0,8 km/h (0 Bft)
14/01/2022 03:00 5,8 C 49 % 1033,3 hPa 0,0 l/m 0,5 km/h (0 Bft) S-SO 0,00 h 0,025 mm 0 W/m -4,0 C 5,8 C 1,6 km/h (1 Bft)
14/01/2022 04:00 6,2 C 45 % 1032,8 hPa 0,0 l/m 0,9 km/h (0 Bft) S-SO 0,00 h 0,025 mm 0 W/m -4,8 C 6,2 C 2,3 km/h (1 Bft)
14/01/2022 05:00 6,7 C 45 % 1032,7 hPa 0,0 l/m 0,7 km/h (0 Bft) S-SO 0,00 h 0,025 mm 0 W/m -4,5 C 6,7 C 2,0 km/h (1 Bft)
14/01/2022 06:00 6,4 C 42 % 1032,8 hPa 0,0 l/m 0,5 km/h (0 Bft) S-SO 0,00 h 0,025 mm 0 W/m -5,7 C 6,4 C 2,1 km/h (1 Bft)
14/01/2022 07:00 6,1 C 43 % 1032,7 hPa 0,0 l/m 0,2 km/h (0 Bft) S-SO 0,00 h 0,025 mm 0 W/m -5,6 C 6,1 C 1,4 km/h (1 Bft)
14/01/2022 08:00 6,0 C 44 % 1032,4 hPa 0,0 l/m 0,1 km/h (0 Bft) S-SO 0,70 h 0,000 mm 44 W/m -5,4 C 6,0 C 0,7 km/h (0 Bft)
14/01/2022 09:00 8,7 C 45 % 1032,2 hPa 0,0 l/m 0,0 km/h (0 Bft) N 1,00 h 0,025 mm 166 W/m -2,5 C 8,7 C 0,0 km/h (0 Bft)
14/01/2022 10:00 12,5 C 42 % 1032,1 hPa 0,0 l/m 0,0 km/h (0 Bft) N 1,00 h 0,076 mm 281 W/m -0,1 C 12,5 C 0,0 km/h (0 Bft)
14/01/2022 11:00 14,5 C 41 % 1031,5 hPa 0,0 l/m 0,0 km/h (0 Bft) N 1,00 h 0,152 mm 360 W/m 1,2 C 14,5 C 0,0 km/h (0 Bft)
14/01/2022 12:00 15,5 C 41 % 1030,5 hPa 0,0 l/m 0,1 km/h (0 Bft) S-SO 1,00 h 0,203 mm 389 W/m 2,3 C 15,5 C 0,6 km/h (0 Bft)
14/01/2022 13:00 16,2 C 43 % 1029,7 hPa 0,0 l/m 0,3 km/h (0 Bft) S-SO 1,00 h 0,203 mm 370 W/m 3,7 C 16,2 C 1,5 km/h (1 Bft)
14/01/2022 14:00 16,3 C 44 % 1029,1 hPa 0,0 l/m 0,1 km/h (0 Bft) S-SO 1,00 h 0,203 mm 306 W/m 3,9 C 16,3 C 0,9 km/h (0 Bft)
14/01/2022 15:00 16,3 C 43 % 1028,6 hPa 0,0 l/m 0,0 km/h (0 Bft) N 1,00 h 0,178 mm 202 W/m 3,7 C 16,3 C 0,0 km/h (0 Bft)
14/01/2022 16:00 15,9 C 45 % 1028,2 hPa 0,0 l/m 0,0 km/h (0 Bft) N 1,00 h 0,127 mm 82 W/m 3,9 C 15,9 C 0,0 km/h (0 Bft)
14/01/2022 17:00 13,2 C 50 % 1027,9 hPa 0,0 l/m 0,0 km/h (0 Bft) N 0,15 h 0,051 mm 10 W/m 3,1 C 13,2 C 0,0 km/h (0 Bft)
14/01/2022 18:00 10,6 C 58 % 1028,0 hPa 0,0 l/m 0,0 km/h (0 Bft) N 0,00 h 0,000 mm 0 W/m 2,7 C 10,6 C 0,0 km/h (0 Bft)
14/01/2022 19:00 9,2 C 61 % 1027,9 hPa 0,0 l/m 0,0 km/h (0 Bft) N 0,00 h 0,025 mm 0 W/m 2,0 C 9,2 C 0,0 km/h (0 Bft)
14/01/2022 20:00 8,7 C 60 % 1027,4 hPa 0,0 l/m 0,0 km/h (0 Bft) N 0,00 h 0,025 mm 0 W/m 1,4 C 8,7 C 0,0 km/h (0 Bft)
14/01/2022 21:00 9,2 C 58 % 1026,8 hPa 0,0 l/m 0,0 km/h (0 Bft) N 0,00 h 0,025 mm 0 W/m 1,3 C 9,2 C 0,0 km/h (0 Bft)
14/01/2022 22:00 9,2 C 52 % 1026,3 hPa 0,0 l/m 0,0 km/h (0 Bft) N 0,00 h 0,025 mm 0 W/m -0,2 C 9,2 C 0,0 km/h (0 Bft)
14/01/2022 23:00 8,8 C 49 % 1026,1 hPa 0,0 l/m 0,0 km/h (0 Bft) N 0,00 h 0,025 mm 0 W/m -1,3 C 8,8 C 0,0 km/h (0 Bft)
15/01/2022 00:00 8,2 C 49 % 1026,0 hPa 0,0 l/m 0,0 km/h (0 Bft) N 0,00 h 0,025 mm 0 W/m -1,8 C 8,2 C 0,0 km/h (0 Bft)
15/01/2022 01:00 7,7 C 50 % 1025,6 hPa 0,0 l/m 0,0 km/h (0 Bft) N 0,00 h 0,025 mm 0 W/m -2,1 C 7,7 C 0,0 km/h (0 Bft)
15/01/2022 02:00 7,7 C 49 % 1025,6 hPa 0,0 l/m 0,0 km/h (0 Bft) N 0,00 h 0,025 mm 0 W/m -2,4 C 7,7 C 0,0 km/h (0 Bft)
15/01/2022 03:00 7,5 C 51 % 1025,3 hPa 0,0 l/m 0,0 km/h (0 Bft) N 0,00 h 0,025 mm 0 W/m -2,1 C 7,5 C 0,0 km/h (0 Bft)
15/01/2022 04:00 7,1 C 53 % 1024,7 hPa 0,0 l/m 0,0 km/h (0 Bft) N 0,00 h 0,025 mm 0 W/m -1,9 C 7,1 C 0,0 km/h (0 Bft)
15/01/2022 05:00 7,6 C 52 % 1024,2 hPa 0,0 l/m 0,9 km/h (0 Bft) S-SO 0,00 h 0,025 mm 0 W/m -1,7 C 7,6 C 2,8 km/h (1 Bft)
15/01/2022 06:00 7,7 C 56 % 1024,4 hPa 0,0 l/m 0,3 km/h (0 Bft) S-SO 0,00 h 0,025 mm 0 W/m -0,6 C 7,7 C 0,9 km/h (0 Bft)
15/01/2022 07:00 7,3 C 56 % 1024,7 hPa 0,0 l/m 0,4 km/h (0 Bft) S-SO 0,00 h 0,025 mm 5 W/m -1,0 C 7,3 C 1,5 km/h (1 Bft)
15/01/2022 08:00 7,6 C 53 % 1024,8 hPa 0,0 l/m 0,0 km/h (0 Bft) N 0,78 h 0,000 mm 46 W/m -1,2 C 7,6 C 0,0 km/h (0 Bft)
15/01/2022 09:00 9,8 C 51 % 1024,9 hPa 0,0 l/m 0,0 km/h (0 Bft) N 1,00 h 0,025 mm 170 W/m 0,1 C 9,8 C 0,0 km/h (0 Bft)
15/01/2022 10:00 13,0 C 54 % 1025,1 hPa 0,0 l/m 0,0 km/h (0 Bft) S 1,00 h 0,076 mm 286 W/m 3,9 C 13,0 C 0,3 km/h (0 Bft)
15/01/2022 11:00 14,2 C 61 % 1024,9 hPa 0,0 l/m 1,1 km/h (1 Bft) S 1,00 h 0,152 mm 364 W/m 6,7 C 14,2 C 3,2 km/h (1 Bft)
15/01/2022 12:00 15,7 C 59 % 1024,1 hPa 0,0 l/m 1,2 km/h (1 Bft) S-SE 1,00 h 0,203 mm 395 W/m 7,8 C 15,7 C 3,4 km/h (1 Bft)
15/01/2022 13:00 15,9 C 66 % 1023,6 hPa 0,0 l/m 3,4 km/h (1 Bft) SE 1,00 h 0,229 mm 373 W/m 9,5 C 15,9 C 7,1 km/h (2 Bft)
15/01/2022 14:00 15,5 C 69 % 1023,4 hPa 0,0 l/m 2,2 km/h (1 Bft) SE 1,00 h 0,203 mm 303 W/m 9,8 C 15,5 C 6,0 km/h (2 Bft)
15/01/2022 15:00 15,0 C 71 % 1023,4 hPa 0,0 l/m 0,3 km/h (0 Bft) SE 0,98 h 0,178 mm 195 W/m 9,7 C 15,0 C 1,7 km/h (1 Bft)
15/01/2022 16:00 13,7 C 75 % 1023,5 hPa 0,0 l/m 0,0 km/h (0 Bft) N 0,60 h 0,102 mm 72 W/m 9,3 C 13,7 C 0,0 km/h (0 Bft)
15/01/2022 17:00 12,3 C 80 % 1023,6 hPa 0,0 l/m 0,0 km/h (0 Bft) N 0,00 h 0,051 mm 8 W/m 8,9 C 12,3 C 0,0 km/h (0 Bft)
15/01/2022 18:00 11,1 C 85 % 1023,8 hPa 0,0 l/m 0,0 km/h (0 Bft) N 0,00 h 0,000 mm 0 W/m 8,6 C 11,1 C 0,0 km/h (0 Bft)
15/01/2022 19:00 10,7 C 84 % 1024,0 hPa 0,0 l/m 0,0 km/h (0 Bft) N 0,00 h 0,000 mm 0 W/m 8,1 C 10,7 C 0,1 km/h (0 Bft)
15/01/2022 20:00 10,3 C 83 % 1024,2 hPa 0,0 l/m 0,0 km/h (0 Bft) N 0,00 h 0,000 mm 0 W/m 7,6 C 10,3 C 0,2 km/h (0 Bft)
15/01/2022 21:00 9,3 C 85 % 1024,4 hPa 0,0 l/m 0,5 km/h (0 Bft) SE 0,00 h 0,000 mm 0 W/m 7,0 C 9,3 C 1,5 km/h (1 Bft)
15/01/2022 22:00 8,3 C 86 % 1024,3 hPa 0,0 l/m 0,8 km/h (0 Bft) SE 0,00 h 0,000 mm 0 W/m 6,1 C 8,3 C 3,3 km/h (1 Bft)
15/01/2022 23:00 7,5 C 86 % 1024,4 hPa 0,0 l/m 0,1 km/h (0 Bft) SE 0,00 h 0,000 mm 0 W/m 5,4 C 7,5 C 1,1 km/h (1 Bft)
16/01/2022 00:00 6,5 C 83 % 1024,6 hPa 0,0 l/m 0,0 km/h (0 Bft) SE 0,00 h 0,000 mm 0 W/m 3,8 C 6,5 C 0,4 km/h (0 Bft)
16/01/2022 01:00 6,4 C 80 % 1024,2 hPa 0,0 l/m 0,1 km/h (0 Bft) SE 0,00 h 0,000 mm 0 W/m 3,3 C 6,4 C 0,5 km/h (0 Bft)
16/01/2022 02:00 7,0 C 84 % 1024,3 hPa 0,0 l/m 0,3 km/h (0 Bft) SE 0,00 h 0,000 mm 0 W/m 4,5 C 7,0 C 1,4 km/h (1 Bft)
16/01/2022 03:00 7,1 C 82 % 1024,7 hPa 0,0 l/m 0,5 km/h (0 Bft) SE 0,00 h 0,000 mm 0 W/m 4,2 C 7,1 C 2,2 km/h (1 Bft)
16/01/2022 04:00 6,4 C 79 % 1023,9 hPa 0,0 l/m 1,0 km/h (0 Bft) SE 0,00 h 0,025 mm 0 W/m 3,0 C 6,4 C 3,2 km/h (1 Bft)
16/01/2022 05:00 5,9 C 81 % 1023,8 hPa 0,0 l/m 0,5 km/h (0 Bft) SE 0,00 h 0,025 mm 0 W/m 3,0 C 5,9 C 2,3 km/h (1 Bft)
16/01/2022 06:00 5,9 C 83 % 1024,1 hPa 0,0 l/m 0,1 km/h (0 Bft) SE 0,00 h 0,000 mm 0 W/m 3,2 C 5,9 C 1,0 km/h (0 Bft)
16/01/2022 07:00 5,7 C 83 % 1024,6 hPa 0,0 l/m 0,1 km/h (0 Bft) SE 0,00 h 0,000 mm 5 W/m 3,0 C 5,7 C 0,8 km/h (0 Bft)
16/01/2022 08:00 5,8 C 82 % 1025,0 hPa 0,0 l/m 0,4 km/h (0 Bft) SE 0,45 h 0,000 mm 36 W/m 2,9 C 5,8 C 1,6 km/h (1 Bft)
16/01/2022 09:00 8,0 C 79 % 1024,8 hPa 0,0 l/m 0,0 km/h (0 Bft) N 1,00 h 0,025 mm 165 W/m 4,6 C 8,0 C 0,1 km/h (0 Bft)
16/01/2022 10:00 11,5 C 75 % 1025,2 hPa 0,0 l/m 0,1 km/h (0 Bft) E 1,00 h 0,076 mm 282 W/m 7,1 C 11,5 C 0,5 km/h (0 Bft)
16/01/2022 11:00 13,5 C 72 % 1024,8 hPa 0,0 l/m 0,6 km/h (0 Bft) E 1,00 h 0,127 mm 362 W/m 8,6 C 13,5 C 2,9 km/h (1 Bft)
16/01/2022 12:00 14,1 C 66 % 1024,3 hPa 0,0 l/m 1,4 km/h (1 Bft) E-SE 1,00 h 0,178 mm 392 W/m 7,8 C 14,1 C 3,9 km/h (1 Bft)
16/01/2022 13:00 14,2 C 66 % 1023,6 hPa 0,0 l/m 1,8 km/h (1 Bft) SE 1,00 h 0,203 mm 372 W/m 7,9 C 14,2 C 4,7 km/h (1 Bft)
16/01/2022 14:00 14,1 C 62 % 1023,1 hPa 0,0 l/m 0,5 km/h (0 Bft) SE 1,00 h 0,203 mm 310 W/m 7,0 C 14,1 C 1,9 km/h (1 Bft)
16/01/2022 15:00 14,5 C 59 % 1022,5 hPa 0,0 l/m 0,0 km/h (0 Bft) N 1,00 h 0,152 mm 206 W/m 6,7 C 14,5 C 0,2 km/h (0 Bft)
16/01/2022 16:00 13,2 C 60 % 1022,6 hPa 0,0 l/m 0,0 km/h (0 Bft) SE 1,00 h 0,102 mm 87 W/m 5,7 C 13,2 C 0,1 km/h (0 Bft)
16/01/2022 17:00 10,2 C 67 % 1022,9 hPa 0,0 l/m 0,0 km/h (0 Bft) N 0,18 h 0,051 mm 12 W/m 4,3 C 10,2 C 0,0 km/h (0 Bft)
16/01/2022 18:00 7,8 C 75 % 1023,3 hPa 0,0 l/m 0,0 km/h (0 Bft) N 0,00 h 0,000 mm 0 W/m 3,6 C 7,8 C 0,0 km/h (0 Bft)
16/01/2022 19:00 6,6 C 80 % 1023,7 hPa 0,0 l/m 0,0 km/h (0 Bft) N 0,00 h 0,025 mm 0 W/m 3,3 C 6,6 C 0,0 km/h (0 Bft)
16/01/2022 20:00 6,1 C 84 % 1024,2 hPa 0,0 l/m 0,0 km/h (0 Bft) N 0,00 h 0,025 mm 0 W/m 3,6 C 6,1 C 0,0 km/h (0 Bft)
16/01/2022 21:00 6,1 C 86 % 1024,5 hPa 0,0 l/m 0,0 km/h (0 Bft) SE 0,00 h 0,000 mm 0 W/m 3,9 C 6,1 C 0,3 km/h (0 Bft)
16/01/2022 22:00 6,2 C 87 % 1024,7 hPa 0,0 l/m 0,0 km/h (0 Bft) N 0,00 h 0,000 mm 0 W/m 4,1 C 6,2 C 0,3 km/h (0 Bft)
16/01/2022 23:00 6,5 C 85 % 1025,1 hPa 0,0 l/m 0,1 km/h (0 Bft) SE 0,00 h 0,000 mm 0 W/m 4,2 C 6,5 C 0,9 km/h (0 Bft)
Min-Date _ 11/01/22 11/01/22 10/01/22 - 10/01/22 - - - - 11/01/22 11/01/22 10/01/22
_ Min-Heure 06:15 12:45 00:00 - 00:24 - - - - 02:37 04:38 00:29
Minimum _ 4,3 C 26 % 1004,4 hPa - 0,0 km/h (0 Bft) - - - - -9,3 C 3,4 C 0,0 km/h (0 Bft)
Max-Date _ 14/01/22 15/01/22 13/01/22 10/01/22 10/01/22 - 10/01/22 12/01/22 10/01/22 15/01/22 14/01/22 10/01/22
_ Max-Heure 15:50 22:47 19:45 00:00 14:42 - 08:15 13:00 12:32 14:46 15:50 12:35
Maximum _ 16,7 C 87 % 1034,6 hPa 0,0 l/m 8,0 km/h
S (2 Bft)
- 0,02 h 0,229 mm 485 W/m 10,3 C 16,7 C 16,1 km/h
S-SO (3 Bft)
Moyenne _ 9,1 C 53 % 1024,0 hPa #0,0 l/m 0,9 km/h (0 Bft) S-SO #58:49 h #10,876 mm 208 W/m -0,4 C 9,0 C 2,1 km/h (1 Bft)
Roquefort les pins